sensor_id;sensor_type;location;lat;lon;timestamp;temperature;humidity
32753;DHT22;19121;52.428;10.816;2023-09-30T00:02:20;22.50;60.30
32753;DHT22;19121;52.428;10.816;2023-09-30T00:04:45;22.50;60.30
32753;DHT22;19121;52.428;10.816;2023-09-30T00:07:11;22.50;60.30
32753;DHT22;19121;52.428;10.816;2023-09-30T00:09:36;22.50;60.40
32753;DHT22;19121;52.428;10.816;2023-09-30T00:12:02;22.50;60.40
32753;DHT22;19121;52.428;10.816;2023-09-30T00:14:28;22.50;60.30
32753;DHT22;19121;52.428;10.816;2023-09-30T00:16:54;22.40;60.20
32753;DHT22;19121;52.428;10.816;2023-09-30T00:19:20;22.50;60.50
32753;DHT22;19121;52.428;10.816;2023-09-30T00:21:48;22.50;60.40
32753;DHT22;19121;52.428;10.816;2023-09-30T00:24:13;22.40;60.30
32753;DHT22;19121;52.428;10.816;2023-09-30T00:26:39;22.40;60.30
32753;DHT22;19121;52.428;10.816;2023-09-30T00:29:04;22.50;60.40
32753;DHT22;19121;52.428;10.816;2023-09-30T00:31:30;22.40;60.40
32753;DHT22;19121;52.428;10.816;2023-09-30T00:33:56;22.40;60.30
32753;DHT22;19121;52.428;10.816;2023-09-30T00:36:21;22.40;60.30
32753;DHT22;19121;52.428;10.816;2023-09-30T00:38:47;22.40;60.30
32753;DHT22;19121;52.428;10.816;2023-09-30T00:41:12;22.40;60.30
32753;DHT22;19121;52.428;10.816;2023-09-30T00:43:37;22.40;60.40
32753;DHT22;19121;52.428;10.816;2023-09-30T00:48:34;22.40;60.30
32753;DHT22;19121;52.428;10.816;2023-09-30T00:51:00;22.40;60.40
32753;DHT22;19121;52.428;10.816;2023-09-30T00:53:25;22.40;60.30
32753;DHT22;19121;52.428;10.816;2023-09-30T00:55:51;22.40;60.30
32753;DHT22;19121;52.428;10.816;2023-09-30T00:58:17;22.40;60.30
32753;DHT22;19121;52.428;10.816;2023-09-30T01:00:43;22.40;60.30
32753;DHT22;19121;52.428;10.816;2023-09-30T01:03:08;22.40;60.40
32753;DHT22;19121;52.428;10.816;2023-09-30T01:05:34;22.40;60.30
32753;DHT22;19121;52.428;10.816;2023-09-30T01:08:01;22.30;60.20
32753;DHT22;19121;52.428;10.816;2023-09-30T01:10:27;22.40;60.30
32753;DHT22;19121;52.428;10.816;2023-09-30T01:12:53;22.30;60.30
32753;DHT22;19121;52.428;10.816;2023-09-30T01:15:18;22.40;60.30
32753;DHT22;19121;52.428;10.816;2023-09-30T01:17:44;22.30;60.20
32753;DHT22;19121;52.428;10.816;2023-09-30T01:20:09;22.30;60.30
32753;DHT22;19121;52.428;10.816;2023-09-30T01:22:36;22.30;60.20
32753;DHT22;19121;52.428;10.816;2023-09-30T01:25:01;22.30;60.20
32753;DHT22;19121;52.428;10.816;2023-09-30T01:27:27;22.30;60.20
32753;DHT22;19121;52.428;10.816;2023-09-30T01:29:52;22.30;60.20
32753;DHT22;19121;52.428;10.816;2023-09-30T01:32:18;22.30;60.20
32753;DHT22;19121;52.428;10.816;2023-09-30T01:34:43;22.30;60.20
32753;DHT22;19121;52.428;10.816;2023-09-30T01:37:09;22.30;60.20
32753;DHT22;19121;52.428;10.816;2023-09-30T01:39:35;22.30;60.20
32753;DHT22;19121;52.428;10.816;2023-09-30T01:42:00;22.30;60.20
32753;DHT22;19121;52.428;10.816;2023-09-30T01:44:26;22.30;60.30
32753;DHT22;19121;52.428;10.816;2023-09-30T01:46:51;22.30;60.30
32753;DHT22;19121;52.428;10.816;2023-09-30T01:49:17;22.30;60.30
32753;DHT22;19121;52.428;10.816;2023-09-30T01:51:43;22.30;60.30
32753;DHT22;19121;52.428;10.816;2023-09-30T01:54:09;22.30;60.20
32753;DHT22;19121;52.428;10.816;2023-09-30T01:56:34;22.20;60.20
32753;DHT22;19121;52.428;10.816;2023-09-30T01:58:59;22.20;60.20
32753;DHT22;19121;52.428;10.816;2023-09-30T02:01:25;22.20;60.20
32753;DHT22;19121;52.428;10.816;2023-09-30T02:03:50;22.20;60.10
32753;DHT22;19121;52.428;10.816;2023-09-30T02:06:16;22.20;60.30
32753;DHT22;19121;52.428;10.816;2023-09-30T02:08:41;22.20;60.10
32753;DHT22;19121;52.428;10.816;2023-09-30T02:11:10;22.20;60.10
32753;DHT22;19121;52.428;10.816;2023-09-30T02:13:35;22.20;60.10
32753;DHT22;19121;52.428;10.816;2023-09-30T02:16:01;22.20;60.10
32753;DHT22;19121;52.428;10.816;2023-09-30T02:18:27;22.20;60.20
32753;DHT22;19121;52.428;10.816;2023-09-30T02:20:52;22.20;60.20
32753;DHT22;19121;52.428;10.816;2023-09-30T02:23:18;22.20;60.10
32753;DHT22;19121;52.428;10.816;2023-09-30T02:25:44;22.20;60.10
32753;DHT22;19121;52.428;10.816;2023-09-30T02:28:09;22.20;60.10
32753;DHT22;19121;52.428;10.816;2023-09-30T02:30:35;22.10;60.10
32753;DHT22;19121;52.428;10.816;2023-09-30T02:33:01;22.20;60.20
32753;DHT22;19121;52.428;10.816;2023-09-30T02:35:27;22.20;60.10
32753;DHT22;19121;52.428;10.816;2023-09-30T02:37:52;22.20;60.20
32753;DHT22;19121;52.428;10.816;2023-09-30T02:40:19;22.10;60.10
32753;DHT22;19121;52.428;10.816;2023-09-30T02:42:45;22.10;60.10
32753;DHT22;19121;52.428;10.816;2023-09-30T02:45:10;22.10;60.10
32753;DHT22;19121;52.428;10.816;2023-09-30T02:47:36;22.20;60.10
32753;DHT22;19121;52.428;10.816;2023-09-30T02:50:02;22.20;60.20
32753;DHT22;19121;52.428;10.816;2023-09-30T02:52:29;22.10;60.10
32753;DHT22;19121;52.428;10.816;2023-09-30T02:54:55;22.10;60.10
32753;DHT22;19121;52.428;10.816;2023-09-30T02:57:22;22.10;60.10
32753;DHT22;19121;52.428;10.816;2023-09-30T02:59:48;22.10;60.10
32753;DHT22;19121;52.428;10.816;2023-09-30T03:02:13;22.10;60.20
32753;DHT22;19121;52.428;10.816;2023-09-30T03:04:40;22.10;60.00
32753;DHT22;19121;52.428;10.816;2023-09-30T03:07:05;22.10;60.10
32753;DHT22;19121;52.428;10.816;2023-09-30T03:09:31;22.10;60.10
32753;DHT22;19121;52.428;10.816;2023-09-30T03:11:56;22.10;60.00
32753;DHT22;19121;52.428;10.816;2023-09-30T03:14:24;22.10;60.00
32753;DHT22;19121;52.428;10.816;2023-09-30T03:16:50;22.10;60.00
32753;DHT22;19121;52.428;10.816;2023-09-30T03:19:15;22.10;60.10
32753;DHT22;19121;52.428;10.816;2023-09-30T03:21:42;22.00;60.00
32753;DHT22;19121;52.428;10.816;2023-09-30T03:24:07;22.00;60.00
32753;DHT22;19121;52.428;10.816;2023-09-30T03:26:33;22.00;60.00
32753;DHT22;19121;52.428;10.816;2023-09-30T03:28:58;22.00;60.00
32753;DHT22;19121;52.428;10.816;2023-09-30T03:31:24;22.00;60.00
32753;DHT22;19121;52.428;10.816;2023-09-30T03:33:50;22.00;60.00
32753;DHT22;19121;52.428;10.816;2023-09-30T03:36:19;22.00;59.90
32753;DHT22;19121;52.428;10.816;2023-09-30T03:38:45;22.00;59.90
32753;DHT22;19121;52.428;10.816;2023-09-30T03:41:10;22.00;59.90
32753;DHT22;19121;52.428;10.816;2023-09-30T03:43:38;22.00;59.90
32753;DHT22;19121;52.428;10.816;2023-09-30T03:46:06;22.00;59.80
32753;DHT22;19121;52.428;10.816;2023-09-30T03:48:32;22.00;59.90
32753;DHT22;19121;52.428;10.816;2023-09-30T03:50:57;22.00;59.80
32753;DHT22;19121;52.428;10.816;2023-09-30T03:53:23;22.00;59.80
32753;DHT22;19121;52.428;10.816;2023-09-30T03:55:51;22.00;59.80
32753;DHT22;19121;52.428;10.816;2023-09-30T03:58:17;22.00;59.80
32753;DHT22;19121;52.428;10.816;2023-09-30T04:00:44;22.00;59.80
32753;DHT22;19121;52.428;10.816;2023-09-30T04:03:09;22.00;59.80
32753;DHT22;19121;52.428;10.816;2023-09-30T04:05:35;22.00;59.80
32753;DHT22;19121;52.428;10.816;2023-09-30T04:08:02;22.00;59.80
32753;DHT22;19121;52.428;10.816;2023-09-30T04:10:28;22.00;59.80
32753;DHT22;19121;52.428;10.816;2023-09-30T04:12:55;22.00;59.80
32753;DHT22;19121;52.428;10.816;2023-09-30T04:15:21;22.00;59.80
32753;DHT22;19121;52.428;10.816;2023-09-30T04:17:47;22.00;59.80
32753;DHT22;19121;52.428;10.816;2023-09-30T04:20:12;21.90;59.70
32753;DHT22;19121;52.428;10.816;2023-09-30T04:22:48;21.90;59.70
32753;DHT22;19121;52.428;10.816;2023-09-30T04:25:14;21.90;59.70
32753;DHT22;19121;52.428;10.816;2023-09-30T04:27:42;22.00;59.80
32753;DHT22;19121;52.428;10.816;2023-09-30T04:30:07;21.90;59.70
32753;DHT22;19121;52.428;10.816;2023-09-30T04:32:37;21.90;59.70
32753;DHT22;19121;52.428;10.816;2023-09-30T04:35:06;21.90;59.70
32753;DHT22;19121;52.428;10.816;2023-09-30T04:37:35;21.90;59.70
32753;DHT22;19121;52.428;10.816;2023-09-30T04:40:03;21.90;59.70
32753;DHT22;19121;52.428;10.816;2023-09-30T04:42:33;21.90;59.70
32753;DHT22;19121;52.428;10.816;2023-09-30T04:44:59;21.90;59.70
32753;DHT22;19121;52.428;10.816;2023-09-30T04:47:25;21.90;59.70
32753;DHT22;19121;52.428;10.816;2023-09-30T04:49:51;21.90;59.70
32753;DHT22;19121;52.428;10.816;2023-09-30T04:52:17;21.90;59.70
32753;DHT22;19121;52.428;10.816;2023-09-30T04:54:42;21.90;59.70
32753;DHT22;19121;52.428;10.816;2023-09-30T04:57:07;21.90;59.70
32753;DHT22;19121;52.428;10.816;2023-09-30T04:59:33;21.90;59.80
32753;DHT22;19121;52.428;10.816;2023-09-30T05:01:59;21.90;59.70
32753;DHT22;19121;52.428;10.816;2023-09-30T05:04:25;21.90;59.80
32753;DHT22;19121;52.428;10.816;2023-09-30T05:06:51;21.90;59.70
32753;DHT22;19121;52.428;10.816;2023-09-30T05:09:16;21.90;59.70
32753;DHT22;19121;52.428;10.816;2023-09-30T05:11:42;21.90;59.70
32753;DHT22;19121;52.428;10.816;2023-09-30T05:14:07;21.80;59.60
32753;DHT22;19121;52.428;10.816;2023-09-30T05:16:32;21.90;59.70
32753;DHT22;19121;52.428;10.816;2023-09-30T05:18:58;21.80;59.60
32753;DHT22;19121;52.428;10.816;2023-09-30T05:21:23;21.90;59.70
32753;DHT22;19121;52.428;10.816;2023-09-30T05:23:49;21.80;59.70
32753;DHT22;19121;52.428;10.816;2023-09-30T05:26:14;21.80;59.70
32753;DHT22;19121;52.428;10.816;2023-09-30T05:28:40;21.80;59.70
32753;DHT22;19121;52.428;10.816;2023-09-30T05:31:06;21.80;59.70
32753;DHT22;19121;52.428;10.816;2023-09-30T05:33:32;21.80;60.40
32753;DHT22;19121;52.428;10.816;2023-09-30T05:35:58;21.80;59.70
32753;DHT22;19121;52.428;10.816;2023-09-30T05:38:25;21.80;59.60
32753;DHT22;19121;52.428;10.816;2023-09-30T05:40:51;21.80;59.70
32753;DHT22;19121;52.428;10.816;2023-09-30T05:43:17;21.80;59.70
32753;DHT22;19121;52.428;10.816;2023-09-30T05:45:42;21.80;59.70
32753;DHT22;19121;52.428;10.816;2023-09-30T05:48:14;21.80;59.70
32753;DHT22;19121;52.428;10.816;2023-09-30T05:50:40;21.80;59.70
32753;DHT22;19121;52.428;10.816;2023-09-30T05:53:06;21.80;59.60
32753;DHT22;19121;52.428;10.816;2023-09-30T05:55:32;21.80;59.70
32753;DHT22;19121;52.428;10.816;2023-09-30T05:57:57;21.80;59.60
32753;DHT22;19121;52.428;10.816;2023-09-30T06:00:24;21.80;59.70
32753;DHT22;19121;52.428;10.816;2023-09-30T06:02:56;21.80;59.70
32753;DHT22;19121;52.428;10.816;2023-09-30T06:05:21;21.80;59.70
32753;DHT22;19121;52.428;10.816;2023-09-30T06:07:48;21.80;59.70
32753;DHT22;19121;52.428;10.816;2023-09-30T06:10:13;21.80;59.70
32753;DHT22;19121;52.428;10.816;2023-09-30T06:12:44;21.80;59.70
32753;DHT22;19121;52.428;10.816;2023-09-30T06:15:09;21.80;59.70
32753;DHT22;19121;52.428;10.816;2023-09-30T06:17:35;21.80;59.70
32753;DHT22;19121;52.428;10.816;2023-09-30T06:20:03;21.70;59.70
32753;DHT22;19121;52.428;10.816;2023-09-30T06:22:34;21.80;59.80
32753;DHT22;19121;52.428;10.816;2023-09-30T06:25:00;21.70;59.70
32753;DHT22;19121;52.428;10.816;2023-09-30T06:27:25;21.70;59.80
32753;DHT22;19121;52.428;10.816;2023-09-30T06:29:51;21.70;59.80
32753;DHT22;19121;52.428;10.816;2023-09-30T06:32:16;21.70;59.70
32753;DHT22;19121;52.428;10.816;2023-09-30T06:34:42;21.70;59.70
32753;DHT22;19121;52.428;10.816;2023-09-30T06:37:08;21.70;59.70
32753;DHT22;19121;52.428;10.816;2023-09-30T06:39:33;21.70;59.70
32753;DHT22;19121;52.428;10.816;2023-09-30T06:41:59;21.70;59.80
32753;DHT22;19121;52.428;10.816;2023-09-30T06:44:24;21.70;59.80
32753;DHT22;19121;52.428;10.816;2023-09-30T06:46:50;21.80;59.80
32753;DHT22;19121;52.428;10.816;2023-09-30T06:49:16;21.70;59.80
32753;DHT22;19121;52.428;10.816;2023-09-30T06:51:41;21.70;59.80
32753;DHT22;19121;52.428;10.816;2023-09-30T06:54:07;21.80;59.80
32753;DHT22;19121;52.428;10.816;2023-09-30T06:56:33;21.70;59.80
32753;DHT22;19121;52.428;10.816;2023-09-30T06:58:58;21.70;59.80
32753;DHT22;19121;52.428;10.816;2023-09-30T07:01:24;21.70;59.80
32753;DHT22;19121;52.428;10.816;2023-09-30T07:03:50;21.70;59.90
32753;DHT22;19121;52.428;10.816;2023-09-30T07:06:25;21.70;60.00
32753;DHT22;19121;52.428;10.816;2023-09-30T07:08:52;21.80;60.00
32753;DHT22;19121;52.428;10.816;2023-09-30T07:11:26;21.70;60.00
32753;DHT22;19121;52.428;10.816;2023-09-30T07:13:51;21.70;60.00
32753;DHT22;19121;52.428;10.816;2023-09-30T07:16:17;21.80;60.10
32753;DHT22;19121;52.428;10.816;2023-09-30T07:18:42;21.80;60.00
32753;DHT22;19121;52.428;10.816;2023-09-30T07:21:08;21.80;59.90
32753;DHT22;19121;52.428;10.816;2023-09-30T07:23:33;21.80;59.80
32753;DHT22;19121;52.428;10.816;2023-09-30T07:25:59;21.80;59.70
32753;DHT22;19121;52.428;10.816;2023-09-30T07:28:24;21.90;59.70
32753;DHT22;19121;52.428;10.816;2023-09-30T07:30:49;21.90;59.60
32753;DHT22;19121;52.428;10.816;2023-09-30T07:33:15;21.90;59.50
32753;DHT22;19121;52.428;10.816;2023-09-30T07:35:40;21.90;59.40
32753;DHT22;19121;52.428;10.816;2023-09-30T07:38:06;21.90;59.40
32753;DHT22;19121;52.428;10.816;2023-09-30T07:40:31;22.00;59.40
32753;DHT22;19121;52.428;10.816;2023-09-30T07:42:58;22.00;59.40
32753;DHT22;19121;52.428;10.816;2023-09-30T07:45:23;22.00;59.30
32753;DHT22;19121;52.428;10.816;2023-09-30T07:47:48;22.00;59.30
32753;DHT22;19121;52.428;10.816;2023-09-30T07:50:14;22.00;59.20
32753;DHT22;19121;52.428;10.816;2023-09-30T07:52:40;22.10;59.20
32753;DHT22;19121;52.428;10.816;2023-09-30T07:55:06;22.10;59.20
32753;DHT22;19121;52.428;10.816;2023-09-30T07:57:32;22.10;59.20
32753;DHT22;19121;52.428;10.816;2023-09-30T07:59:58;22.10;59.10
32753;DHT22;19121;52.428;10.816;2023-09-30T08:02:24;22.20;59.20
32753;DHT22;19121;52.428;10.816;2023-09-30T08:04:53;22.20;59.10
32753;DHT22;19121;52.428;10.816;2023-09-30T08:07:18;22.20;59.10
32753;DHT22;19121;52.428;10.816;2023-09-30T08:09:44;22.20;59.10
32753;DHT22;19121;52.428;10.816;2023-09-30T08:12:09;22.20;59.00
32753;DHT22;19121;52.428;10.816;2023-09-30T08:14:34;22.20;59.00
32753;DHT22;19121;52.428;10.816;2023-09-30T08:17:00;22.30;59.10
32753;DHT22;19121;52.428;10.816;2023-09-30T08:19:25;22.30;59.10
32753;DHT22;19121;52.428;10.816;2023-09-30T08:21:50;22.30;59.00
32753;DHT22;19121;52.428;10.816;2023-09-30T08:24:17;22.30;59.00
32753;DHT22;19121;52.428;10.816;2023-09-30T08:26:42;22.30;59.00
32753;DHT22;19121;52.428;10.816;2023-09-30T08:29:08;22.40;59.00
32753;DHT22;19121;52.428;10.816;2023-09-30T08:31:33;22.40;59.10
32753;DHT22;19121;52.428;10.816;2023-09-30T08:33:59;22.40;59.00
32753;DHT22;19121;52.428;10.816;2023-09-30T08:36:24;22.40;59.00
32753;DHT22;19121;52.428;10.816;2023-09-30T08:38:50;22.40;59.00
32753;DHT22;19121;52.428;10.816;2023-09-30T08:41:31;22.40;59.00
32753;DHT22;19121;52.428;10.816;2023-09-30T08:43:59;22.40;59.00
32753;DHT22;19121;52.428;10.816;2023-09-30T08:46:24;22.50;59.00
32753;DHT22;19121;52.428;10.816;2023-09-30T08:48:50;22.50;59.00
32753;DHT22;19121;52.428;10.816;2023-09-30T08:51:16;22.50;59.00
32753;DHT22;19121;52.428;10.816;2023-09-30T08:53:41;22.50;59.00
32753;DHT22;19121;52.428;10.816;2023-09-30T08:56:07;22.50;58.90
32753;DHT22;19121;52.428;10.816;2023-09-30T08:58:35;22.50;58.90
32753;DHT22;19121;52.428;10.816;2023-09-30T09:01:01;22.60;58.90
32753;DHT22;19121;52.428;10.816;2023-09-30T09:03:27;22.60;58.90
32753;DHT22;19121;52.428;10.816;2023-09-30T09:05:53;22.60;58.90
32753;DHT22;19121;52.428;10.816;2023-09-30T09:08:20;22.60;59.50
32753;DHT22;19121;52.428;10.816;2023-09-30T09:10:56;22.60;58.90
32753;DHT22;19121;52.428;10.816;2023-09-30T09:13:22;22.60;58.80
32753;DHT22;19121;52.428;10.816;2023-09-30T09:15:48;22.60;58.80
32753;DHT22;19121;52.428;10.816;2023-09-30T09:18:19;22.70;58.80
32753;DHT22;19121;52.428;10.816;2023-09-30T09:21:07;22.70;58.80
32753;DHT22;19121;52.428;10.816;2023-09-30T09:23:32;22.60;58.80
32753;DHT22;19121;52.428;10.816;2023-09-30T09:26:03;22.70;58.80
32753;DHT22;19121;52.428;10.816;2023-09-30T09:28:34;22.70;58.80
32753;DHT22;19121;52.428;10.816;2023-09-30T09:31:01;22.70;58.80
32753;DHT22;19121;52.428;10.816;2023-09-30T09:33:36;22.70;58.80
32753;DHT22;19121;52.428;10.816;2023-09-30T09:36:05;22.70;59.40
32753;DHT22;19121;52.428;10.816;2023-09-30T09:38:43;22.70;58.80
32753;DHT22;19121;52.428;10.816;2023-09-30T09:41:09;22.70;58.70
32753;DHT22;19121;52.428;10.816;2023-09-30T09:43:36;22.70;58.70
32753;DHT22;19121;52.428;10.816;2023-09-30T09:46:01;22.70;58.80
32753;DHT22;19121;52.428;10.816;2023-09-30T09:48:29;22.80;58.80
32753;DHT22;19121;52.428;10.816;2023-09-30T09:50:54;22.70;58.70
32753;DHT22;19121;52.428;10.816;2023-09-30T09:53:20;22.80;58.80
32753;DHT22;19121;52.428;10.816;2023-09-30T09:55:46;22.80;58.80
32753;DHT22;19121;52.428;10.816;2023-09-30T09:58:12;22.80;58.80
32753;DHT22;19121;52.428;10.816;2023-09-30T10:00:38;22.80;58.80
32753;DHT22;19121;52.428;10.816;2023-09-30T10:03:04;22.80;58.80
32753;DHT22;19121;52.428;10.816;2023-09-30T10:05:29;22.80;58.80
32753;DHT22;19121;52.428;10.816;2023-09-30T10:07:56;22.80;58.80
32753;DHT22;19121;52.428;10.816;2023-09-30T10:10:23;22.80;58.90
32753;DHT22;19121;52.428;10.816;2023-09-30T10:12:49;22.80;58.80
32753;DHT22;19121;52.428;10.816;2023-09-30T10:17:59;22.80;58.90
32753;DHT22;19121;52.428;10.816;2023-09-30T10:20:28;22.80;58.90
32753;DHT22;19121;52.428;10.816;2023-09-30T10:28:37;22.80;58.90
32753;DHT22;19121;52.428;10.816;2023-09-30T10:31:10;22.90;58.90
32753;DHT22;19121;52.428;10.816;2023-09-30T10:34:15;22.90;59.00
32753;DHT22;19121;52.428;10.816;2023-09-30T10:36:32;22.90;59.00
32753;DHT22;19121;52.428;10.816;2023-09-30T10:38:57;22.90;59.00
32753;DHT22;19121;52.428;10.816;2023-09-30T10:46:47;22.80;59.00
32753;DHT22;19121;52.428;10.816;2023-09-30T10:49:16;22.90;59.10
32753;DHT22;19121;52.428;10.816;2023-09-30T10:51:45;22.90;59.10
32753;DHT22;19121;52.428;10.816;2023-09-30T10:54:12;22.90;59.10
32753;DHT22;19121;52.428;10.816;2023-09-30T10:56:37;22.90;59.20
32753;DHT22;19121;52.428;10.816;2023-09-30T10:59:03;22.90;59.10
32753;DHT22;19121;52.428;10.816;2023-09-30T11:01:33;22.90;59.10
32753;DHT22;19121;52.428;10.816;2023-09-30T11:04:02;22.90;59.20
32753;DHT22;19121;52.428;10.816;2023-09-30T11:06:30;22.90;59.20
32753;DHT22;19121;52.428;10.816;2023-09-30T11:08:56;22.90;59.20
32753;DHT22;19121;52.428;10.816;2023-09-30T11:13:57;22.90;59.20
32753;DHT22;19121;52.428;10.816;2023-09-30T11:16:23;22.90;59.20
32753;DHT22;19121;52.428;10.816;2023-09-30T11:18:53;22.90;59.20
32753;DHT22;19121;52.428;10.816;2023-09-30T11:21:18;22.90;59.20
32753;DHT22;19121;52.428;10.816;2023-09-30T11:23:43;22.90;59.20
32753;DHT22;19121;52.428;10.816;2023-09-30T11:26:09;22.90;59.20
32753;DHT22;19121;52.428;10.816;2023-09-30T11:28:35;22.90;59.20
32753;DHT22;19121;52.428;10.816;2023-09-30T11:31:01;22.90;59.20
32753;DHT22;19121;52.428;10.816;2023-09-30T11:33:31;22.90;59.10
32753;DHT22;19121;52.428;10.816;2023-09-30T11:36:02;22.90;59.10
32753;DHT22;19121;52.428;10.816;2023-09-30T11:38:28;22.90;59.10
32753;DHT22;19121;52.428;10.816;2023-09-30T11:40:57;22.90;59.20
32753;DHT22;19121;52.428;10.816;2023-09-30T11:43:23;22.90;59.20
32753;DHT22;19121;52.428;10.816;2023-09-30T11:45:50;23.00;59.20
32753;DHT22;19121;52.428;10.816;2023-09-30T11:48:16;22.90;59.20
32753;DHT22;19121;52.428;10.816;2023-09-30T11:50:45;23.00;59.20
32753;DHT22;19121;52.428;10.816;2023-09-30T11:53:17;23.00;59.20
32753;DHT22;19121;52.428;10.816;2023-09-30T11:55:43;22.90;59.20
32753;DHT22;19121;52.428;10.816;2023-09-30T11:58:08;23.00;59.20
32753;DHT22;19121;52.428;10.816;2023-09-30T12:00:35;22.90;59.20
32753;DHT22;19121;52.428;10.816;2023-09-30T12:03:00;23.00;59.20
32753;DHT22;19121;52.428;10.816;2023-09-30T12:05:25;23.00;59.20
32753;DHT22;19121;52.428;10.816;2023-09-30T12:07:51;22.90;59.20
32753;DHT22;19121;52.428;10.816;2023-09-30T12:10:16;22.90;59.20
32753;DHT22;19121;52.428;10.816;2023-09-30T12:12:42;23.00;59.20
32753;DHT22;19121;52.428;10.816;2023-09-30T12:15:07;23.00;59.20
32753;DHT22;19121;52.428;10.816;2023-09-30T12:17:34;23.00;59.20
32753;DHT22;19121;52.428;10.816;2023-09-30T12:19:59;23.00;59.30
32753;DHT22;19121;52.428;10.816;2023-09-30T12:22:25;22.90;59.10
32753;DHT22;19121;52.428;10.816;2023-09-30T12:24:51;22.90;59.20
32753;DHT22;19121;52.428;10.816;2023-09-30T12:27:17;22.90;59.10
32753;DHT22;19121;52.428;10.816;2023-09-30T12:29:42;23.00;59.20
32753;DHT22;19121;52.428;10.816;2023-09-30T12:32:09;22.90;59.10
32753;DHT22;19121;52.428;10.816;2023-09-30T12:34:34;23.00;59.20
32753;DHT22;19121;52.428;10.816;2023-09-30T12:37:01;23.00;59.20
32753;DHT22;19121;52.428;10.816;2023-09-30T12:39:26;22.90;59.20
32753;DHT22;19121;52.428;10.816;2023-09-30T12:41:55;22.90;59.20
32753;DHT22;19121;52.428;10.816;2023-09-30T12:44:21;23.00;59.20
32753;DHT22;19121;52.428;10.816;2023-09-30T12:46:47;22.90;59.20
32753;DHT22;19121;52.428;10.816;2023-09-30T12:49:13;22.90;59.10
32753;DHT22;19121;52.428;10.816;2023-09-30T12:51:39;22.90;59.10
32753;DHT22;19121;52.428;10.816;2023-09-30T12:54:04;23.00;59.20
32753;DHT22;19121;52.428;10.816;2023-09-30T12:56:30;23.00;59.20
32753;DHT22;19121;52.428;10.816;2023-09-30T12:58:55;22.90;59.20
32753;DHT22;19121;52.428;10.816;2023-09-30T13:01:21;22.90;59.20
32753;DHT22;19121;52.428;10.816;2023-09-30T13:03:48;23.00;59.20
32753;DHT22;19121;52.428;10.816;2023-09-30T13:06:14;23.00;59.20
32753;DHT22;19121;52.428;10.816;2023-09-30T13:08:40;23.00;59.30
32753;DHT22;19121;52.428;10.816;2023-09-30T13:11:06;23.00;59.20
32753;DHT22;19121;52.428;10.816;2023-09-30T13:13:32;23.00;59.20
32753;DHT22;19121;52.428;10.816;2023-09-30T13:16:01;22.90;59.10
32753;DHT22;19121;52.428;10.816;2023-09-30T13:18:27;22.90;59.20
32753;DHT22;19121;52.428;10.816;2023-09-30T13:20:52;22.90;59.20
32753;DHT22;19121;52.428;10.816;2023-09-30T13:23:18;22.90;59.10
32753;DHT22;19121;52.428;10.816;2023-09-30T13:25:44;23.00;59.20
32753;DHT22;19121;52.428;10.816;2023-09-30T13:28:09;23.00;59.20
32753;DHT22;19121;52.428;10.816;2023-09-30T13:30:35;23.00;59.20
32753;DHT22;19121;52.428;10.816;2023-09-30T13:33:01;23.00;59.20
32753;DHT22;19121;52.428;10.816;2023-09-30T13:35:26;23.00;59.20
32753;DHT22;19121;52.428;10.816;2023-09-30T13:37:52;23.00;59.20
32753;DHT22;19121;52.428;10.816;2023-09-30T13:40:17;22.90;59.10
32753;DHT22;19121;52.428;10.816;2023-09-30T13:42:42;22.90;59.10
32753;DHT22;19121;52.428;10.816;2023-09-30T13:45:08;23.00;59.20
32753;DHT22;19121;52.428;10.816;2023-09-30T13:47:34;23.00;59.80
32753;DHT22;19121;52.428;10.816;2023-09-30T13:50:01;22.90;59.10
32753;DHT22;19121;52.428;10.816;2023-09-30T13:52:26;23.00;59.20
32753;DHT22;19121;52.428;10.816;2023-09-30T13:54:52;22.90;59.20
32753;DHT22;19121;52.428;10.816;2023-09-30T13:57:17;23.00;59.20
32753;DHT22;19121;52.428;10.816;2023-09-30T13:59:43;23.00;59.20
32753;DHT22;19121;52.428;10.816;2023-09-30T14:02:08;23.00;59.20
32753;DHT22;19121;52.428;10.816;2023-09-30T14:04:33;23.00;59.20
32753;DHT22;19121;52.428;10.816;2023-09-30T14:07:02;23.00;59.20
32753;DHT22;19121;52.428;10.816;2023-09-30T14:09:33;22.90;59.10
32753;DHT22;19121;52.428;10.816;2023-09-30T14:11:58;22.90;59.10
32753;DHT22;19121;52.428;10.816;2023-09-30T14:14:24;23.00;59.20
32753;DHT22;19121;52.428;10.816;2023-09-30T14:16:49;23.00;59.20
32753;DHT22;19121;52.428;10.816;2023-09-30T14:19:15;23.00;59.20
32753;DHT22;19121;52.428;10.816;2023-09-30T14:21:40;23.00;59.20
32753;DHT22;19121;52.428;10.816;2023-09-30T14:24:06;22.90;59.10
32753;DHT22;19121;52.428;10.816;2023-09-30T14:26:32;23.00;59.10
32753;DHT22;19121;52.428;10.816;2023-09-30T14:28:58;22.90;59.10
32753;DHT22;19121;52.428;10.816;2023-09-30T14:31:23;23.00;59.10
32753;DHT22;19121;52.428;10.816;2023-09-30T14:33:49;22.90;59.10
32753;DHT22;19121;52.428;10.816;2023-09-30T14:36:16;22.90;59.10
32753;DHT22;19121;52.428;10.816;2023-09-30T14:38:42;22.90;59.10
32753;DHT22;19121;52.428;10.816;2023-09-30T14:41:08;23.00;59.20
32753;DHT22;19121;52.428;10.816;2023-09-30T14:43:34;22.90;59.10
32753;DHT22;19121;52.428;10.816;2023-09-30T14:46:02;23.00;59.10
32753;DHT22;19121;52.428;10.816;2023-09-30T14:48:29;22.90;59.10
32753;DHT22;19121;52.428;10.816;2023-09-30T14:50:54;22.90;59.10
32753;DHT22;19121;52.428;10.816;2023-09-30T14:53:20;22.90;59.10
32753;DHT22;19121;52.428;10.816;2023-09-30T14:55:45;22.90;59.10
32753;DHT22;19121;52.428;10.816;2023-09-30T14:58:11;22.90;59.10
32753;DHT22;19121;52.428;10.816;2023-09-30T15:00:37;22.90;59.10
32753;DHT22;19121;52.428;10.816;2023-09-30T15:03:02;22.90;59.10
32753;DHT22;19121;52.428;10.816;2023-09-30T15:05:28;22.90;59.10
32753;DHT22;19121;52.428;10.816;2023-09-30T15:07:54;23.00;59.10
32753;DHT22;19121;52.428;10.816;2023-09-30T15:10:19;22.90;59.10
32753;DHT22;19121;52.428;10.816;2023-09-30T15:12:45;22.90;59.00
32753;DHT22;19121;52.428;10.816;2023-09-30T15:15:10;22.90;59.00
32753;DHT22;19121;52.428;10.816;2023-09-30T15:17:35;22.90;59.10
32753;DHT22;19121;52.428;10.816;2023-09-30T15:20:01;22.90;59.00
32753;DHT22;19121;52.428;10.816;2023-09-30T15:22:26;22.90;59.00
32753;DHT22;19121;52.428;10.816;2023-09-30T15:24:52;22.90;59.00
32753;DHT22;19121;52.428;10.816;2023-09-30T15:27:17;22.90;59.00
32753;DHT22;19121;52.428;10.816;2023-09-30T15:29:44;22.90;59.00